Time;durP1;ratioP1;P1;durP2;ratioP2;P2;SDS_P1;SDS_P2;PMS_P1;PMS_P2;Temp;Humidity;BMP_temperature;BMP_pressure;BME280_temperature;BME280_humidity;BME280_pressure;Samples;Min_cycle;Max_cycle;Signal;HPM_P1;HPM_P2
2021/08/04 00:01:27;;;;;;;;;;;;;;;28.14;39.63;97178.19;5011660;28;1909;-50
2021/08/04 00:03:52;;;;;;;;;;;;;;;28.21;39.35;97189.06;5010421;28;1623;-51
2021/08/04 00:06:17;;;;;;;;;;;;;;;28.23;39.37;97189.75;5012228;28;1165;-50
2021/08/04 00:08:43;;;;;;;;;;;;;;;28.25;39.43;97187.78;5011882;28;1220;-51
2021/08/04 00:11:08;;;;;;;;;;;;;;;28.25;39.23;97190.41;5011935;28;2120;-51
2021/08/04 00:13:33;;;;;;;;;;;;;;;28.22;39.51;97186.25;5012811;28;1529;-51
2021/08/04 00:15:58;;;;;;;;;;;;;;;28.34;39.08;97186.91;5011768;28;1204;-50
2021/08/04 00:18:23;;;;;;;;;;;;;;;28.27;39.19;97186.63;5011622;28;1261;-51
2021/08/04 00:20:49;;;;;;;;;;;;;;;28.23;39.21;97181.78;5011676;28;1982;-51
2021/08/04 00:23:14;;;;;;;;;;;;;;;28.26;39.10;97182.31;5010389;28;1409;-51
2021/08/04 00:25:39;;;;;;;;;;;;;;;28.18;39.35;97184.03;5009406;28;1556;-50
2021/08/04 00:28:04;;;;;;;;;;;;;;;28.29;38.87;97178.56;5008847;28;1051;-51
2021/08/04 00:30:30;;;;;;;;;;;;;;;28.17;39.60;97182.38;5013895;28;1327;-51
2021/08/04 00:32:55;;;;;;;;;;;;;;;28.21;39.21;97179.28;5011441;28;1081;-51
2021/08/04 00:35:21;;;;;;;;;;;;;;;28.22;39.26;97178.31;5009651;28;1588;-51
2021/08/04 00:37:46;;;;;;;;;;;;;;;28.15;39.22;97176.38;5011450;28;1207;-50
2021/08/04 00:40:11;;;;;;;;;;;;;;;28.16;39.53;97175.41;5010571;28;1898;-51
2021/08/04 00:42:37;;;;;;;;;;;;;;;28.20;39.49;97171.44;5010805;28;1561;-51
2021/08/04 00:45:02;;;;;;;;;;;;;;;28.24;39.18;97178.97;5011595;28;1176;-51
2021/08/04 00:47:27;;;;;;;;;;;;;;;28.28;39.29;97182.16;5012278;28;1145;-51
2021/08/04 00:49:52;;;;;;;;;;;;;;;28.31;39.00;97180.09;5010277;28;1679;-51
2021/08/04 00:52:18;;;;;;;;;;;;;;;28.26;39.17;97182.31;5010613;28;1180;-51
2021/08/04 00:54:43;;;;;;;;;;;;;;;28.22;39.38;97183.59;5011961;28;1449;-51
2021/08/04 00:57:08;;;;;;;;;;;;;;;28.27;39.19;97178.69;5009297;28;1920;-51
2021/08/04 00:59:34;;;;;;;;;;;;;;;28.20;39.25;97176.75;5008148;28;1288;-50
2021/08/04 01:02:03;;;;;;;;;;;;;;;28.24;38.99;97184.28;5005849;28;1348;-51
2021/08/04 01:04:34;;;;;;;;;;;;;;;28.20;39.28;97180.28;5006900;28;1047;-51
2021/08/04 01:07:19;;;;;;;;;;;;;;;28.33;39.06;97186.09;5008930;28;1858;-51
2021/08/04 01:09:52;;;;;;;;;;;;;;;28.14;39.48;97183.50;5011895;28;1347;-51
2021/08/04 01:12:19;;;;;;;;;;;;;;;28.18;39.35;97178.72;5011821;28;1513;-50
2021/08/04 01:14:44;;;;;;;;;;;;;;;28.20;39.27;97177.63;5010473;28;1229;-51
2021/08/04 01:17:10;;;;;;;;;;;;;;;28.18;39.36;97178.72;5008918;28;1252;-50
2021/08/04 01:19:54;;;;;;;;;;;;;;;28.15;39.54;97182.53;5007711;28;2062;-51
2021/08/04 01:22:25;;;;;;;;;;;;;;;28.16;39.53;97186.00;5011186;28;1240;-50
2021/08/04 01:24:55;;;;;;;;;;;;;;;28.23;39.26;97195.03;5008746;28;1249;-51
2021/08/04 01:27:20;;;;;;;;;;;;;;;28.25;39.25;97193.06;5007419;28;1625;-51
2021/08/04 01:29:46;;;;;;;;;;;;;;;28.29;39.12;97199.78;5009560;28;1304;-51
2021/08/04 01:32:11;;;;;;;;;;;;;;;28.09;39.73;97193.69;5008255;28;1205;-51
2021/08/04 01:34:36;;;;;;;;;;;;;;;28.16;39.49;97193.97;5009331;28;1522;-51
2021/08/04 01:37:02;;;;;;;;;;;;;;;28.21;39.17;97189.06;5010320;28;1390;-50
2021/08/04 01:39:27;;;;;;;;;;;;;;;28.15;39.37;97184.34;5009627;28;1363;-51
2021/08/04 01:41:52;;;;;;;;;;;;;;;28.22;39.24;97174.81;5006114;28;1899;-51
2021/08/04 01:44:17;;;;;;;;;;;;;;;28.22;39.35;97180.97;5010287;28;1164;-51
2021/08/04 01:46:43;;;;;;;;;;;;;;;28.21;39.34;97181.94;5009504;28;1344;-51
2021/08/04 01:49:09;;;;;;;;;;;;;;;28.23;39.17;97184.44;5007302;28;1692;-51
2021/08/04 01:51:34;;;;;;;;;;;;;;;28.13;39.68;97176.53;5009487;28;1457;-51
2021/08/04 01:53:59;;;;;;;;;;;;;;;28.16;39.54;97172.75;5011352;28;1240;-51
2021/08/04 01:56:25;;;;;;;;;;;;;;;28.16;39.28;97167.44;5007663;28;1581;-50
2021/08/04 01:58:50;;;;;;;;;;;;;;;28.32;38.96;97160.56;5009647;28;1358;-51
2021/08/04 02:01:15;;;;;;;;;;;;;;;28.18;39.31;97170.78;5010245;28;1907;-51
2021/08/04 02:03:40;;;;;;;;;;;;;;;28.25;39.21;97170.03;5009384;28;1422;-51
2021/08/04 02:06:07;;;;;;;;;;;;;;;28.08;39.67;97169.00;5009128;28;1559;-51
2021/08/04 02:08:32;;;;;;;;;;;;;;;28.20;39.13;97164.38;5008330;28;1193;-51
2021/08/04 02:11:05;;;;;;;;;;;;;;;28.16;39.28;97164.78;5010187;28;1544;-51
2021/08/04 02:13:32;;;;;;;;;;;;;;;28.15;39.35;97160.47;5009359;28;1236;-50
2021/08/04 02:15:59;;;;;;;;;;;;;;;28.24;39.07;97171.03;5011901;28;1477;-51
2021/08/04 02:18:26;;;;;;;;;;;;;;;28.23;39.39;97171.19;5009815;28;1118;-51
2021/08/04 02:20:51;;;;;;;;;;;;;;;28.28;38.92;97155.66;5008425;28;1906;-50
2021/08/04 02:23:25;;;;;;;;;;;;;;;28.09;39.13;97161.88;5008462;28;1221;-51
2021/08/04 02:25:52;;;;;;;;;;;;;;;28.12;39.34;97161.59;5005738;28;1624;-50
2021/08/04 02:28:28;;;;;;;;;;;;;;;28.11;39.36;97170.53;5008710;28;1232;-50
2021/08/04 02:30:53;;;;;;;;;;;;;;;28.19;39.30;97161.84;5006229;28;1386;-51
2021/08/04 02:33:19;;;;;;;;;;;;;;;28.13;39.33;97160.63;5010168;28;1225;-51
2021/08/04 02:35:44;;;;;;;;;;;;;;;28.12;39.62;97166.06;5004839;28;1647;-50
2021/08/04 02:38:09;;;;;;;;;;;;;;;28.24;38.96;97162.25;5010906;28;1402;-50
2021/08/04 02:40:35;;;;;;;;;;;;;;;28.18;39.38;97165.47;5008680;28;1971;-50
2021/08/04 02:43:00;;;;;;;;;;;;;;;28.30;39.16;97162.53;5009807;28;1188;-51
2021/08/04 02:45:25;;;;;;;;;;;;;;;28.21;39.02;97165.19;5009010;28;1367;-51
2021/08/04 02:47:50;;;;;;;;;;;;;;;28.15;39.53;97165.78;5011762;28;1193;-50
2021/08/04 02:50:16;;;;;;;;;;;;;;;28.16;39.27;97164.78;5006412;28;1554;-50
2021/08/04 02:52:41;;;;;;;;;;;;;;;28.13;39.37;97168.59;5009981;28;1192;-51
2021/08/04 02:55:06;;;;;;;;;;;;;;;28.18;39.03;97174.25;5012270;28;1186;-51
2021/08/04 02:57:31;;;;;;;;;;;;;;;28.25;39.04;97177.16;5012915;28;1572;-50
2021/08/04 02:59:57;;;;;;;;;;;;;;;28.28;39.22;97176.84;5013430;28;1926;-51
2021/08/04 03:02:22;;;;;;;;;;;;;;;28.20;39.02;97187.38;5013830;28;1245;-50
2021/08/04 03:04:47;;;;;;;;;;;;;;;28.25;39.42;97182.47;5011542;28;1651;-51
2021/08/04 03:07:12;;;;;;;;;;;;;;;28.22;38.92;97188.91;5011362;28;1517;-51
2021/08/04 03:09:38;;;;;;;;;;;;;;;28.10;39.22;97184.75;5013370;28;1280;-51
2021/08/04 03:12:03;;;;;;;;;;;;;;;28.12;39.18;97181.97;5012578;28;1545;-51
2021/08/04 03:14:28;;;;;;;;;;;;;;;28.14;39.16;97188.81;5013150;28;1228;-51
2021/08/04 03:16:53;;;;;;;;;;;;;;;28.12;39.48;97187.25;5011907;28;1552;-51
2021/08/04 03:19:19;;;;;;;;;;;;;;;28.13;39.19;97189.78;5013599;28;1352;-51
2021/08/04 03:21:44;;;;;;;;;;;;;;;28.23;39.11;97187.09;5011564;28;1902;-50
2021/08/04 03:24:09;;;;;;;;;;;;;;;28.27;38.97;97189.28;5012742;28;1453;-51
2021/08/04 03:26:35;;;;;;;;;;;;;;;28.23;39.32;97192.41;5010085;28;1838;-51
2021/08/04 03:29:00;;;;;;;;;;;;;;;28.21;39.14;97187.25;5009169;28;1560;-50
2021/08/04 03:31:25;;;;;;;;;;;;;;;28.18;39.24;97181.38;5012245;28;1292;-51
2021/08/04 03:33:50;;;;;;;;;;;;;;;28.14;39.32;97185.31;5012832;28;1197;-50
2021/08/04 03:36:15;;;;;;;;;;;;;;;28.13;39.25;97181.84;5013260;28;1663;-51
2021/08/04 03:38:41;;;;;;;;;;;;;;;28.14;39.49;97180.03;5010558;28;1605;-51
2021/08/04 03:41:06;;;;;;;;;;;;;;;28.10;39.46;97177.63;5012582;28;1906;-51
2021/08/04 03:43:31;;;;;;;;;;;;;;;28.27;39.00;97178.69;5012167;28;1169;-51
2021/08/04 03:45:56;;;;;;;;;;;;;;;28.14;39.49;97182.66;5013507;28;1185;-51
2021/08/04 03:48:21;;;;;;;;;;;;;;;28.13;39.49;97183.66;5012020;28;1641;-51
2021/08/04 03:50:47;;;;;;;;;;;;;;;28.07;39.59;97177.09;5011381;28;2030;-51
2021/08/04 03:53:12;;;;;;;;;;;;;;;28.17;39.41;97169.09;5009381;28;1571;-51
2021/08/04 03:55:37;;;;;;;;;;;;;;;28.25;39.05;97179.81;5011961;28;1596;-51
2021/08/04 03:58:02;;;;;;;;;;;;;;;28.24;39.15;97183.44;5011361;28;1311;-51
2021/08/04 04:00:28;;;;;;;;;;;;;;;28.24;39.33;97183.44;5012665;28;1981;-51
2021/08/04 04:02:53;;;;;;;;;;;;;;;28.25;39.34;97182.47;5011092;28;1604;-51
2021/08/04 04:05:18;;;;;;;;;;;;;;;28.30;39.01;97186.38;5012145;28;1228;-50
2021/08/04 04:07:43;;;;;;;;;;;;;;;28.20;39.29;97182.06;5012243;28;1295;-51
2021/08/04 04:10:09;;;;;;;;;;;;;;;28.15;39.38;97192.28;5012344;28;1307;-51
2021/08/04 04:12:34;;;;;;;;;;;;;;;28.21;39.31;97179.28;5010986;28;1576;-50
2021/08/04 04:14:59;;;;;;;;;;;;;;;28.21;39.21;97184.59;5012021;28;1161;-53
2021/08/04 04:17:24;;;;;;;;;;;;;;;28.19;39.58;97189.19;5011348;28;1374;-51
2021/08/04 04:19:50;;;;;;;;;;;;;;;28.14;39.41;97193.28;5011142;28;1981;-51
2021/08/04 04:22:15;;;;;;;;;;;;;;;28.24;39.15;97189.59;5010863;28;1201;-50
2021/08/04 04:24:40;;;;;;;;;;;;;;;28.28;39.03;97190.13;5011998;28;1517;-52
2021/08/04 04:27:05;;;;;;;;;;;;;;;28.25;38.93;97188.59;5010105;28;1647;-51
2021/08/04 04:29:31;;;;;;;;;;;;;;;28.20;39.28;97182.94;5012029;28;1273;-51
2021/08/04 04:31:56;;;;;;;;;;;;;;;28.28;39.08;97183.03;5011318;28;1342;-51
2021/08/04 04:34:21;;;;;;;;;;;;;;;28.29;39.02;97186.50;5012468;28;1189;-50
2021/08/04 04:36:46;;;;;;;;;;;;;;;28.36;39.18;97190.28;5009099;28;1660;-50
2021/08/04 04:39:11;;;;;;;;;;;;;;;28.30;39.18;97190.88;5012130;28;1311;-51
2021/08/04 04:41:37;;;;;;;;;;;;;;;28.23;39.59;97189.75;5010957;28;1906;-51
2021/08/04 04:44:02;;;;;;;;;;;;;;;28.36;39.01;97187.63;5012804;28;1958;-51
2021/08/04 04:46:27;;;;;;;;;;;;;;;28.12;39.61;97189.91;5011461;28;1125;-50
2021/08/04 04:48:53;;;;;;;;;;;;;;;28.28;39.45;97190.97;5009475;28;1564;-51
2021/08/04 04:51:18;;;;;;;;;;;;;;;28.39;39.17;97194.44;5011557;28;1292;-50
2021/08/04 04:53:43;;;;;;;;;;;;;;;28.32;39.10;97196.84;5010119;28;1466;-49
2021/08/04 04:56:08;;;;;;;;;;;;;;;28.48;39.02;97194.38;5008767;28;1656;-51
2021/08/04 04:58:34;;;;;;;;;;;;;;;28.34;39.30;97197.53;5010354;28;1258;-51
2021/08/04 05:00:59;;;;;;;;;;;;;;;28.41;39.10;97211.88;5010019;28;1902;-51
2021/08/04 05:03:24;;;;;;;;;;;;;;;28.22;39.56;97204.81;5010434;28;1505;-51
2021/08/04 05:05:49;;;;;;;;;;;;;;;28.18;39.56;97205.25;5011053;28;1217;-50
2021/08/04 05:08:14;;;;;;;;;;;;;;;28.27;39.26;97207.00;5011897;28;1315;-51
2021/08/04 05:10:40;;;;;;;;;;;;;;;28.25;39.34;97203.69;5008260;28;1572;-50
2021/08/04 05:13:05;;;;;;;;;;;;;;;28.42;38.97;97199.44;5011111;28;1098;-51
2021/08/04 05:15:31;;;;;;;;;;;;;;;28.41;38.98;97208.38;5009525;28;2100;-51
2021/08/04 05:17:56;;;;;;;;;;;;;;;28.34;39.36;97201.00;5011083;28;1105;-51
2021/08/04 05:20:21;;;;;;;;;;;;;;;28.23;39.54;97211.78;5010072;28;1964;-51
2021/08/04 05:22:47;;;;;;;;;;;;;;;28.38;39.00;97204.22;5009939;28;1184;-51
2021/08/04 05:25:12;;;;;;;;;;;;;;;28.20;39.38;97201.47;5010749;28;1224;-51
2021/08/04 05:27:37;;;;;;;;;;;;;;;28.26;39.30;97210.66;5008719;28;1684;-51
2021/08/04 05:30:02;;;;;;;;;;;;;;;28.25;39.34;97207.16;5007989;28;1520;-51
2021/08/04 05:32:28;;;;;;;;;;;;;;;28.25;39.46;97208.97;5010379;28;1291;-51
2021/08/04 05:34:53;;;;;;;;;;;;;;;28.18;39.79;97213.19;5010153;28;1283;-51
2021/08/04 05:37:18;;;;;;;;;;;;;;;28.23;39.34;97203.84;5009025;28;1607;-50
2021/08/04 05:39:43;;;;;;;;;;;;;;;28.08;40.06;97214.06;5009424;28;1289;-51
2021/08/04 05:42:08;;;;;;;;;;;;;;;28.27;39.42;97210.50;5008447;28;1906;-51
2021/08/04 05:44:34;;;;;;;;;;;;;;;28.25;39.68;97216.94;5011001;28;1173;-51
2021/08/04 05:46:59;;;;;;;;;;;;;;;28.28;39.19;97220.16;5009850;28;1200;-50
2021/08/04 05:49:24;;;;;;;;;;;;;;;28.24;39.65;97215.28;5010900;28;1367;-51
2021/08/04 05:51:53;;;;;;;;;;;;;;;28.16;39.66;97223.13;5005787;28;1559;-50
2021/08/04 05:54:19;;;;;;;;;;;;;;;28.22;39.46;97220.72;5010047;28;1105;-51
2021/08/04 05:56:44;;;;;;;;;;;;;;;28.25;39.52;97220.44;5008412;28;1651;-51
2021/08/04 05:59:09;;;;;;;;;;;;;;;28.19;39.67;97220.16;5009739;28;1534;-51
2021/08/04 06:01:34;;;;;;;;;;;;;;;28.18;39.52;97213.19;5009438;28;1902;-51
2021/08/04 06:03:59;;;;;;;;;;;;;;;28.18;39.66;97218.50;5009345;28;1453;-50
2021/08/04 06:06:25;;;;;;;;;;;;;;;28.27;39.30;97222.94;5008745;28;1747;-51
2021/08/04 06:08:50;;;;;;;;;;;;;;;28.08;40.05;97221.19;5009288;28;1331;-51
2021/08/04 06:11:15;;;;;;;;;;;;;;;28.14;39.79;97225.09;5009454;28;1632;-51
2021/08/04 06:13:40;;;;;;;;;;;;;;;28.10;39.92;97221.88;5007670;28;1537;-51
2021/08/04 06:16:06;;;;;;;;;;;;;;;28.10;39.72;97221.88;5010194;28;1331;-51
2021/08/04 06:18:31;;;;;;;;;;;;;;;28.18;39.65;97229.09;5009102;28;1494;-51
2021/08/04 06:20:56;;;;;;;;;;;;;;;28.16;39.95;97225.78;5008930;28;1981;-51
2021/08/04 06:23:21;;;;;;;;;;;;;;;28.11;40.11;97228.84;5007263;28;1568;-51
2021/08/04 06:25:46;;;;;;;;;;;;;;;28.33;39.54;97225.03;5009652;28;1545;-51
2021/08/04 06:28:12;;;;;;;;;;;;;;;28.20;39.45;97227.13;5009144;28;1093;-50
2021/08/04 06:30:37;;;;;;;;;;;;;;;28.13;39.97;97221.59;5010394;28;1362;-51
2021/08/04 06:33:02;;;;;;;;;;;;;;;28.22;39.65;97222.53;5010144;28;1197;-51
2021/08/04 06:35:27;;;;;;;;;;;;;;;28.14;39.77;97227.75;5008435;28;1568;-51
2021/08/04 06:37:52;;;;;;;;;;;;;;;28.35;39.57;97231.03;5009208;28;1387;-51
2021/08/04 06:40:18;;;;;;;;;;;;;;;28.26;39.46;97226.56;5009265;28;1938;-51
2021/08/04 06:42:43;;;;;;;;;;;;;;;28.20;39.62;97225.34;5006602;28;1644;-51
2021/08/04 06:45:08;;;;;;;;;;;;;;;28.15;39.68;97232.06;5009474;28;1204;-51
2021/08/04 06:47:34;;;;;;;;;;;;;;;28.11;40.08;97218.25;5010071;28;1240;-50
2021/08/04 06:49:59;;;;;;;;;;;;;;;28.08;40.04;97229.97;5009938;28;1391;-50
2021/08/04 06:52:24;;;;;;;;;;;;;;;28.22;39.64;97231.34;5007868;28;1628;-50
2021/08/04 06:54:49;;;;;;;;;;;;;;;28.15;39.88;97230.25;5010014;28;1177;-51
2021/08/04 06:57:15;;;;;;;;;;;;;;;28.02;40.08;97227.91;5008930;28;1568;-51
2021/08/04 06:59:40;;;;;;;;;;;;;;;28.27;39.48;97225.56;5009219;28;1417;-50
2021/08/04 07:02:05;;;;;;;;;;;;;;;28.18;39.62;97221.16;5008296;28;1977;-51
2021/08/04 07:04:30;;;;;;;;;;;;;;;28.14;39.71;97215.31;5008515;28;1585;-50
2021/08/04 07:06:57;;;;;;;;;;;;;;;28.12;39.79;97219.06;5009730;28;1300;-50
2021/08/04 07:09:22;;;;;;;;;;;;;;;28.26;39.69;97218.59;5009533;28;1359;-52
2021/08/04 07:11:47;;;;;;;;;;;;;;;28.22;39.54;97219.91;5008417;28;1612;-51
2021/08/04 07:14:12;;;;;;;;;;;;;;;28.17;39.91;97219.47;5009875;28;1581;-51
2021/08/04 07:16:37;;;;;;;;;;;;;;;28.19;39.79;97213.03;5009153;28;1212;-52
2021/08/04 07:19:03;;;;;;;;;;;;;;;28.17;39.78;97222.97;5009063;28;1618;-51
2021/08/04 07:21:28;;;;;;;;;;;;;;;28.14;39.95;97219.78;5009577;28;1898;-52
2021/08/04 07:23:53;;;;;;;;;;;;;;;28.09;40.14;97217.56;5008339;28;1204;-51
2021/08/04 07:26:18;;;;;;;;;;;;;;;28.14;39.83;97222.44;5008923;28;1619;-51
2021/08/04 07:28:44;;;;;;;;;;;;;;;28.28;39.68;97214.84;5007018;28;1600;-50
2021/08/04 07:31:09;;;;;;;;;;;;;;;28.15;39.55;97214.34;5008599;28;1217;-52
2021/08/04 07:33:34;;;;;;;;;;;;;;;29.02;38.04;97219.22;4784256;28;1311;-51
2021/08/04 07:35:59;;;;;;;;;;;;;;;28.65;38.60;97219.28;5008806;28;1084;-51
2021/08/04 07:38:24;;;;;;;;;;;;;;;28.22;39.52;97220.72;5005740;28;1688;-51
2021/08/04 07:40:50;;;;;;;;;;;;;;;28.22;39.76;97226.03;5011588;28;1926;-51
2021/08/04 07:43:15;;;;;;;;;;;;;;;28.20;39.53;97224.50;5011718;28;1616;-51
2021/08/04 07:45:40;;;;;;;;;;;;;;;28.24;39.37;97220.56;5012800;28;1236;-51
2021/08/04 07:48:05;;;;;;;;;;;;;;;28.21;39.63;97229.66;5012018;28;1229;-51
2021/08/04 07:50:30;;;;;;;;;;;;;;;28.12;39.90;97227.84;5011555;28;1628;-51
2021/08/04 07:52:56;;;;;;;;;;;;;;;28.17;39.74;97222.13;5011437;28;1402;-51
2021/08/04 07:55:21;;;;;;;;;;;;;;;28.31;39.47;97216.41;5013062;28;1165;-51
2021/08/04 07:57:46;;;;;;;;;;;;;;;28.19;39.61;97226.31;5011320;28;1660;-50
2021/08/04 08:00:11;;;;;;;;;;;;;;;28.14;39.67;97220.63;5012075;28;1906;-51
2021/08/04 08:02:37;;;;;;;;;;;;;;;28.22;39.64;97219.91;5011520;28;966;-52
2021/08/04 08:05:02;;;;;;;;;;;;;;;28.29;39.37;97226.28;5011991;28;1627;-52
2021/08/04 08:07:27;;;;;;;;;;;;;;;28.29;39.23;97221.84;5012224;28;1098;-51
2021/08/04 08:09:52;;;;;;;;;;;;;;;28.23;39.56;97217.09;5012265;28;1292;-52
2021/08/04 08:12:18;;;;;;;;;;;;;;;28.41;39.05;97221.66;5011540;28;2031;-51
2021/08/04 08:14:43;;;;;;;;;;;;;;;28.16;39.73;97225.78;5012495;28;1236;-51
2021/08/04 08:17:08;;;;;;;;;;;;;;;28.23;39.54;97224.22;5011932;28;1308;-51
2021/08/04 08:19:34;;;;;;;;;;;;;;;28.16;39.69;97226.59;5012319;28;1423;-51
2021/08/04 08:21:59;;;;;;;;;;;;;;;28.27;39.44;97229.06;5010297;28;1966;-51
2021/08/04 08:24:24;;;;;;;;;;;;;;;28.26;39.56;97229.22;5010723;28;1390;-51
2021/08/04 08:26:49;;;;;;;;;;;;;;;28.22;39.54;97225.19;5010115;28;1565;-51
2021/08/04 08:29:15;;;;;;;;;;;;;;;28.31;39.24;97225.19;5011640;28;1328;-51
2021/08/04 08:31:40;;;;;;;;;;;;;;;28.23;39.53;97232.16;5011656;28;1544;-51
2021/08/04 08:34:05;;;;;;;;;;;;;;;28.23;39.66;97232.16;5011223;28;1223;-50
2021/08/04 08:36:31;;;;;;;;;;;;;;;28.23;39.80;97232.16;5008925;28;1695;-51
2021/08/04 08:38:56;;;;;;;;;;;;;;;28.23;39.71;97230.34;5011436;28;1713;-51
2021/08/04 08:41:22;;;;;;;;;;;;;;;28.26;39.40;97226.56;5011204;28;2198;-51
2021/08/04 08:43:47;;;;;;;;;;;;;;;28.38;39.09;97222.78;5010631;28;1235;-51
2021/08/04 08:46:12;;;;;;;;;;;;;;;28.25;39.50;97216.94;5012259;28;1204;-51
2021/08/04 08:48:37;;;;;;;;;;;;;;;28.30;39.69;97218.22;5011347;28;1141;-52
2021/08/04 08:51:03;;;;;;;;;;;;;;;28.21;39.84;97215.56;5011027;28;2139;-52
2021/08/04 08:53:28;;;;;;;;;;;;;;;28.15;39.92;97216.16;5010609;28;1113;-52
2021/08/04 08:55:53;;;;;;;;;;;;;;;28.19;39.92;97214.88;5007662;28;1616;-50
2021/08/04 08:58:18;;;;;;;;;;;;;;;28.22;39.54;97218.06;5010251;28;1554;-51
2021/08/04 09:00:43;;;;;;;;;;;;;;;28.17;39.88;97216.84;5010655;28;1906;-51
2021/08/04 09:03:10;;;;;;;;;;;;;;;28.20;39.83;97211.22;5010042;28;1318;-52
2021/08/04 09:05:48;;;;;;;;;;;;;;;28.18;39.67;97206.06;5011127;28;1593;-51
2021/08/04 09:08:23;;;;;;;;;;;;;;;28.25;39.43;97206.34;5009678;28;1209;-52
2021/08/04 09:10:49;;;;;;;;;;;;;;;28.21;39.73;97213.75;5008588;28;1576;-52
2021/08/04 09:13:14;;;;;;;;;;;;;;;28.36;39.48;97208.84;5011382;28;1165;-51
2021/08/04 09:15:40;;;;;;;;;;;;;;;28.13;39.76;97199.56;5010615;28;1064;-51
2021/08/04 09:18:06;;;;;;;;;;;;;;;28.23;39.53;97200.34;5010960;28;1857;-52
2021/08/04 09:20:39;;;;;;;;;;;;;;;28.19;39.91;97198.94;5009684;28;1910;-51
2021/08/04 09:23:05;;;;;;;;;;;;;;;28.30;39.34;97191.69;5010329;28;1082;-51
2021/08/04 09:25:30;;;;;;;;;;;;;;;28.45;39.27;97200.00;5011396;28;1098;-51
2021/08/04 09:27:57;;;;;;;;;;;;;;;28.26;39.51;97197.41;5008113;28;1866;-52
2021/08/04 09:30:27;;;;;;;;;;;;;;;28.28;39.39;97201.59;5009587;28;1289;-51
2021/08/04 09:33:12;;;;;;;;;;;;;;;28.17;39.95;97187.66;5012923;28;1173;-51
2021/08/04 09:35:45;;;;;;;;;;;;;;;28.33;39.59;97190.56;5009104;28;1631;-51
2021/08/04 09:38:10;;;;;;;;;;;;;;;28.33;39.34;97191.38;5010662;28;1176;-49
2021/08/04 09:40:35;;;;;;;;;;;;;;;28.27;39.51;97188.44;5010000;28;1973;-50
2021/08/04 09:43:00;;;;;;;;;;;;;;;28.33;39.42;97190.56;5009534;28;1627;-51
2021/08/04 09:45:41;;;;;;;;;;;;;;;28.41;39.04;97189.81;5010600;28;1177;-51
2021/08/04 09:48:08;;;;;;;;;;;;;;;28.32;39.35;97178.28;5008512;28;1406;-51
2021/08/04 09:51:03;;;;;;;;;;;;;;;28.07;40.10;97179.75;5009357;28;1560;-51
2021/08/04 09:53:28;;;;;;;;;;;;;;;28.16;39.56;97180.69;4992044;28;1443;-51
2021/08/04 09:56:03;;;;;;;;;;;;;;;28.40;39.19;97169.59;5009466;28;1501;-51
2021/08/04 09:58:28;;;;;;;;;;;;;;;28.24;39.55;97176.34;5008766;28;1228;-51
2021/08/04 10:00:53;;;;;;;;;;;;;;;28.17;39.80;97174.41;5010668;28;1984;-51
2021/08/04 10:03:19;;;;;;;;;;;;;;;28.17;39.76;97169.09;5007802;28;1103;-51
2021/08/04 10:05:44;;;;;;;;;;;;;;;28.34;39.31;97166.53;5008605;28;1516;-51
2021/08/04 10:08:10;;;;;;;;;;;;;;;28.27;39.31;97175.19;5009668;28;1066;-51
2021/08/04 10:10:45;;;;;;;;;;;;;;;28.31;39.29;97171.31;5009254;28;1489;-51
2021/08/04 10:13:13;;;;;;;;;;;;;;;28.23;39.65;97164.06;5008713;28;1165;-51
2021/08/04 10:15:41;;;;;;;;;;;;;;;28.23;39.70;97174.66;5009616;28;1415;-51
2021/08/04 10:18:07;;;;;;;;;;;;;;;28.31;39.63;97161.53;5009687;28;1114;-51
2021/08/04 10:20:32;;;;;;;;;;;;;;;28.40;39.13;97164.28;5007605;28;2036;-51
2021/08/04 10:22:59;;;;;;;;;;;;;;;28.29;39.37;97158.22;5009800;28;1201;-51
2021/08/04 10:25:24;;;;;;;;;;;;;;;28.33;39.29;97164.03;5007561;28;1379;-50
2021/08/04 10:27:49;;;;;;;;;;;;;;;28.39;39.16;97158.16;5009992;28;1643;-51
2021/08/04 10:30:14;;;;;;;;;;;;;;;28.30;39.44;97157.22;5008992;28;1292;-51
2021/08/04 10:32:40;;;;;;;;;;;;;;;28.28;39.69;97160.94;5006913;28;1284;-52
2021/08/04 10:35:05;;;;;;;;;;;;;;;28.30;39.53;97151.91;5009227;28;1604;-51
2021/08/04 10:37:32;;;;;;;;;;;;;;;28.37;39.20;97157.47;5009009;28;1295;-51
2021/08/04 10:39:57;;;;;;;;;;;;;;;28.33;39.33;97158.72;5010020;28;1284;-51
2021/08/04 10:42:36;;;;;;;;;;;;;;;28.36;39.28;97153.16;5005135;28;1972;-50
2021/08/04 10:45:33;;;;;;;;;;;;;;;28.41;39.23;97150.88;5009828;28;1098;-51
2021/08/04 10:48:18;;;;;;;;;;;;;;;28.23;39.53;97148.16;4985219;28;1485;-51
2021/08/04 10:51:02;;;;;;;;;;;;;;;28.30;39.41;97153.72;5008022;28;1593;-50
2021/08/04 10:53:27;;;;;;;;;;;;;;;28.27;39.59;97154.81;5008284;28;1397;-50
2021/08/04 10:55:55;;;;;;;;;;;;;;;28.34;39.30;97149.78;5009266;28;1576;-50
2021/08/04 10:58:21;;;;;;;;;;;;;;;28.37;39.18;97154.81;5008740;28;1365;-51
2021/08/04 11:00:46;;;;;;;;;;;;;;;28.34;39.20;97153.28;5009135;28;1906;-50
2021/08/04 11:03:29;;;;;;;;;;;;;;;28.25;39.33;97150.66;5009165;28;1342;-51
2021/08/04 11:06:10;;;;;;;;;;;;;;;28.24;39.40;97151.63;5009169;28;1592;-51
2021/08/04 11:08:35;;;;;;;;;;;;;;;28.30;39.28;97156.38;5007827;28;1434;-51
2021/08/04 11:11:00;;;;;;;;;;;;;;;28.24;39.36;97149.81;5008096;28;1544;-50
2021/08/04 11:13:41;;;;;;;;;;;;;;;28.44;39.24;97145.28;5009641;28;1641;-51
2021/08/04 11:16:25;;;;;;;;;;;;;;;28.36;39.34;97145.19;5013151;28;1162;-51
2021/08/04 11:19:03;;;;;;;;;;;;;;;28.38;39.25;97145.88;5012110;28;1212;-51
2021/08/04 11:21:28;;;;;;;;;;;;;;;28.38;39.25;97140.56;5013144;28;1910;-49
2021/08/04 11:23:53;;;;;;;;;;;;;;;28.32;39.31;97143.81;5012519;28;1244;-51
2021/08/04 11:26:27;;;;;;;;;;;;;;;28.57;39.02;97145.75;5012557;28;1758;-51
2021/08/04 11:28:53;;;;;;;;;;;;;;;28.47;39.09;97147.63;5009850;28;1485;-51
2021/08/04 11:31:19;;;;;;;;;;;;;;;28.31;39.36;97142.13;5013513;28;1269;-51
2021/08/04 11:33:44;;;;;;;;;;;;;;;28.33;39.33;97138.34;5011544;28;1157;-50
2021/08/04 11:36:20;;;;;;;;;;;;;;;28.32;39.15;97139.34;5012634;28;1844;-51
2021/08/04 11:38:49;;;;;;;;;;;;;;;28.40;39.39;97135.94;5010198;28;1651;-51
2021/08/04 11:41:15;;;;;;;;;;;;;;;28.27;39.55;97130.13;5011646;28;1911;-51
2021/08/04 11:43:40;;;;;;;;;;;;;;;28.43;38.90;97127.69;5013542;28;1215;-51
2021/08/04 11:46:05;;;;;;;;;;;;;;;28.38;39.32;97124.66;5013202;28;1197;-51
2021/08/04 11:48:46;;;;;;;;;;;;;;;28.28;39.43;97129.13;5011734;28;1529;-50
2021/08/04 11:51:12;;;;;;;;;;;;;;;28.21;39.41;97120.97;5008976;28;1825;-51
2021/08/04 11:53:41;;;;;;;;;;;;;;;28.21;39.61;97120.13;5010068;28;1146;-51
2021/08/04 11:56:06;;;;;;;;;;;;;;;28.50;39.05;97119.97;5011323;28;1608;-51
2021/08/04 11:58:31;;;;;;;;;;;;;;;28.28;39.17;97105.25;5011077;28;1390;-51
2021/08/04 12:01:13;;;;;;;;;;;;;;;28.38;39.32;97108.75;5011697;28;1914;-50
2021/08/04 12:03:39;;;;;;;;;;;;;;;28.36;39.34;97108.06;5012483;28;1137;-51
2021/08/04 12:06:16;;;;;;;;;;;;;;;28.42;39.04;97103.97;5011091;28;1604;-51
2021/08/04 12:08:42;;;;;;;;;;;;;;;28.36;39.15;97100.09;5012735;28;1146;-51
2021/08/04 12:11:07;;;;;;;;;;;;;;;28.35;39.15;97107.19;5007370;28;1533;-51
2021/08/04 12:13:32;;;;;;;;;;;;;;;28.34;39.34;97105.53;5010470;28;1197;-51
2021/08/04 12:15:58;;;;;;;;;;;;;;;28.36;39.43;97100.94;5013170;28;1588;-51
2021/08/04 12:18:23;;;;;;;;;;;;;;;28.38;39.29;97094.66;5012212;28;1251;-51
2021/08/04 12:20:49;;;;;;;;;;;;;;;28.37;39.00;97096.47;5011614;28;1985;-51
2021/08/04 12:23:18;;;;;;;;;;;;;;;28.50;38.92;97096.91;5010826;28;1676;-51
2021/08/04 12:25:43;;;;;;;;;;;;;;;28.30;39.60;97090.91;5009292;28;1580;-51
2021/08/04 12:28:08;;;;;;;;;;;;;;;28.37;39.20;97091.16;5008540;28;1106;-51
2021/08/04 12:30:41;;;;;;;;;;;;;;;28.41;38.97;97087.22;5011766;28;1374;-51
2021/08/04 12:33:17;;;;;;;;;;;;;;;28.28;39.61;97084.03;5010782;28;1229;-51
2021/08/04 12:35:51;;;;;;;;;;;;;;;28.33;39.51;97077.34;5008589;28;1604;-51
2021/08/04 12:38:17;;;;;;;;;;;;;;;28.39;39.16;97078.56;5011642;28;1153;-50
2021/08/04 12:40:49;;;;;;;;;;;;;;;28.35;39.15;97080.69;5010749;28;1906;-51
2021/08/04 12:43:15;;;;;;;;;;;;;;;28.38;39.24;97084.88;5011763;28;1378;-51
2021/08/04 12:45:44;;;;;;;;;;;;;;;28.42;38.98;97072.13;5010220;28;1145;-51
2021/08/04 12:48:09;;;;;;;;;;;;;;;28.34;39.17;97076.38;5010427;28;1667;-51
2021/08/04 12:50:49;;;;;;;;;;;;;;;28.23;39.37;97075.72;5011891;28;1288;-51
2021/08/04 12:53:21;;;;;;;;;;;;;;;28.32;39.11;97074.84;5011103;28;1235;-51
2021/08/04 12:56:03;;;;;;;;;;;;;;;28.46;38.76;97077.00;5008409;28;1693;-51